Time;durP1;ratioP1;P1;durP2;ratioP2;P2;SDS_P1;SDS_P2;PMS_P1;PMS_P2;Temp;Humidity;BMP_temperature;BMP_pressure;BME280_temperature;BME280_humidity;BME280_pressure;Samples;Min_cycle;Max_cycle;Signal;HPM_P1;HPM_P2
2021/11/08 00:01:59;;;;;;;22.30;11.85;;;;;;;8.39;74.87;99976.73;1670368;86;21497;-66
2021/11/08 00:04:47;;;;;;;21.23;11.35;;;;;;;8.39;74.90;99976.22;1675738;84;21106;-64
2021/11/08 00:07:18;;;;;;;24.18;11.55;;;;;;;8.39;74.90;99980.83;1672381;86;21110;-65
2021/11/08 00:09:48;;;;;;;19.92;12.05;;;;;;;8.39;74.83;99970.77;1672550;86;21038;-64
2021/11/08 00:12:21;;;;;;;24.82;13.00;;;;;;;8.37;74.92;99970.63;1670400;86;21533;-66
2021/11/08 00:14:53;;;;;;;22.93;11.95;;;;;;;8.35;75.02;99965.36;1669259;84;21076;-65
2021/11/08 00:17:40;;;;;;;24.43;11.85;;;;;;;8.36;75.02;99966.21;1702800;84;21080;-65
2021/11/08 00:20:10;;;;;;;23.05;12.65;;;;;;;8.38;75.01;99966.34;1701761;84;21036;-70
2021/11/08 00:22:36;;;;;;;24.12;13.58;;;;;;;8.39;75.04;99957.63;1702101;83;21493;-65
2021/11/08 00:25:07;;;;;;;24.50;13.03;;;;;;;8.39;75.06;99957.63;1701334;84;21060;-67
2021/11/08 00:27:39;;;;;;;23.07;12.43;;;;;;;8.38;74.99;99947.23;1701296;84;21080;-65
2021/11/08 00:30:11;;;;;;;23.20;12.93;;;;;;;8.37;75.00;99952.37;1701523;83;21096;-67
2021/11/08 00:32:41;;;;;;;24.52;12.50;;;;;;;8.38;74.97;99939.05;1702872;84;21603;-66
2021/11/08 00:35:12;;;;;;;23.75;12.30;;;;;;;8.37;74.87;99941.45;1702706;83;21047;-65
2021/11/08 00:37:42;;;;;;;23.00;12.33;;;;;;;8.36;74.85;99949.83;1702923;84;21069;-65
2021/11/08 00:40:12;;;;;;;23.65;12.55;;;;;;;8.32;75.01;99942.52;1703012;83;21485;-67
2021/11/08 00:42:40;;;;;;;23.55;12.75;;;;;;;8.29;74.95;99942.91;1700018;84;21076;-65
2021/11/08 00:45:11;;;;;;;23.87;12.50;;;;;;;8.26;75.05;99941.41;1701259;84;21064;-65
2021/11/08 00:47:40;;;;;;;25.17;13.18;;;;;;;8.25;75.07;99947.06;1701177;84;21198;-66
2021/11/08 00:50:08;;;;;;;22.07;12.43;;;;;;;8.24;75.12;99949.47;1701330;84;21048;-65
2021/11/08 00:52:38;;;;;;;20.68;12.95;;;;;;;8.18;75.26;99937.44;1723889;83;21484;-66
2021/11/08 00:55:07;;;;;;;24.25;12.65;;;;;;;8.16;75.39;99946.86;1735007;81;21083;-65
2021/11/08 00:57:38;;;;;;;21.68;11.78;;;;;;;8.15;75.55;99946.53;1735278;81;21135;-69
2021/11/08 01:00:10;;;;;;;21.87;12.18;;;;;;;8.20;75.58;99953.10;1735339;81;21527;-65
2021/11/08 01:02:46;;;;;;;26.60;12.68;;;;;;;8.21;75.56;99952.58;1732869;83;21040;-66
2021/11/08 01:05:16;;;;;;;25.77;13.30;;;;;;;8.19;75.62;99949.20;1731948;82;21211;-66
2021/11/08 01:07:45;;;;;;;26.33;13.03;;;;;;;8.19;75.62;99954.14;1735129;81;21024;-66
2021/11/08 01:10:17;;;;;;;25.55;13.32;;;;;;;8.20;75.63;99945.44;1735290;81;21532;-65
2021/11/08 01:12:47;;;;;;;24.92;13.13;;;;;;;8.24;75.62;99946.73;1730085;83;21059;-64
2021/11/08 01:15:16;;;;;;;26.65;13.10;;;;;;;8.24;75.56;99946.73;1706111;84;21528;-66
2021/11/08 01:17:45;;;;;;;24.40;13.13;;;;;;;8.22;75.61;99941.47;1699006;84;21551;-65
2021/11/08 01:20:17;;;;;;;23.83;13.08;;;;;;;8.22;75.60;99941.99;1698713;83;21425;-66
2021/11/08 01:22:48;;;;;;;26.30;13.00;;;;;;;8.17;75.60;99945.83;1672733;85;21455;-66
2021/11/08 01:25:17;;;;;;;24.95;12.85;;;;;;;8.14;75.73;99950.30;1672380;86;21051;-66
2021/11/08 01:27:50;;;;;;;21.45;12.47;;;;;;;8.13;75.75;99947.25;1672284;86;21173;-66
2021/11/08 01:30:21;;;;;;;21.97;13.05;;;;;;;8.09;75.77;99954.97;1670307;84;21047;-65
2021/11/08 01:33:03;;;;;;;23.07;12.30;;;;;;;8.11;75.85;99959.72;1672390;86;21098;-66
2021/11/08 01:35:38;;;;;;;24.47;13.00;;;;;;;8.09;75.92;99944.58;1672482;86;21568;-64
2021/11/08 01:38:10;;;;;;;23.85;13.38;;;;;;;8.07;75.95;99939.83;1672449;86;21079;-67
2021/11/08 01:40:40;;;;;;;23.20;13.00;;;;;;;8.07;75.99;99939.83;1670466;86;21263;-64
2021/11/08 01:43:11;;;;;;;21.90;12.45;;;;;;;8.10;76.02;99931.27;1672460;86;21067;-65
2021/11/08 01:45:40;;;;;;;25.25;12.47;;;;;;;8.13;76.01;99927.63;1672487;86;21611;-65
2021/11/08 01:48:11;;;;;;;23.85;13.20;;;;;;;8.14;75.92;99924.37;1672395;86;21174;-65
2021/11/08 01:50:41;;;;;;;29.07;13.85;;;;;;;8.12;75.87;99933.28;1672527;86;21019;-67
2021/11/08 01:53:11;;;;;;;22.80;12.78;;;;;;;8.09;75.92;99928.20;1670568;86;21054;-66
2021/11/08 01:55:40;;;;;;;23.92;12.80;;;;;;;8.08;75.93;99925.16;1672415;86;21084;-66
2021/11/08 01:58:09;;;;;;;25.17;12.88;;;;;;;8.09;75.91;99927.69;1672481;86;21014;-67
2021/11/08 02:00:39;;;;;;;22.05;12.95;;;;;;;8.08;75.88;99928.73;1672660;86;21070;-66
2021/11/08 02:03:08;;;;;;;22.30;13.22;;;;;;;8.07;75.95;99933.02;1657788;86;21499;-66
2021/11/08 02:05:37;;;;;;;22.62;13.05;;;;;;;8.03;76.04;99934.44;1675611;84;21187;-65
2021/11/08 02:08:06;;;;;;;23.40;12.75;;;;;;;8.00;76.08;99923.39;1697193;84;21183;-66
2021/11/08 02:10:36;;;;;;;25.97;13.48;;;;;;;7.97;76.08;99934.69;1697289;84;21514;-65
2021/11/08 02:13:06;;;;;;;23.10;12.88;;;;;;;7.97;76.12;99922.94;1697511;84;21127;-65
2021/11/08 02:15:36;;;;;;;23.22;12.53;;;;;;;7.95;76.15;99927.22;1692004;84;21321;-67
2021/11/08 02:18:06;;;;;;;24.57;13.83;;;;;;;7.92;76.20;99932.53;1691974;85;21108;-67
2021/11/08 02:20:36;;;;;;;23.35;12.70;;;;;;;7.90;76.27;99925.06;1691912;85;21041;-66
2021/11/08 02:23:06;;;;;;;22.98;12.10;;;;;;;7.91;76.28;99927.27;1694992;83;21187;-65
2021/11/08 02:25:37;;;;;;;24.92;12.20;;;;;;;7.92;76.23;99921.62;1693526;85;21057;-65
2021/11/08 02:28:07;;;;;;;23.62;12.68;;;;;;;7.93;76.12;99921.95;1693479;84;21500;-65
2021/11/08 02:30:37;;;;;;;21.20;12.50;;;;;;;7.91;76.10;99922.66;1693496;85;21062;-70
2021/11/08 02:33:08;;;;;;;25.48;13.25;;;;;;;7.91;76.03;99921.82;1708267;83;21084;-65
2021/11/08 02:35:37;;;;;;;27.87;13.65;;;;;;;7.85;75.91;99916.61;1717852;83;21159;-65
2021/11/08 02:38:09;;;;;;;26.90;13.13;;;;;;;7.81;75.85;99918.03;1717835;83;21037;-66
2021/11/08 02:40:37;;;;;;;24.07;12.37;;;;;;;7.79;75.86;99917.34;1717743;83;21116;-66
2021/11/08 02:43:05;;;;;;;21.45;12.28;;;;;;;7.77;75.84;99919.42;1709304;83;21030;-67
2021/11/08 02:45:35;;;;;;;21.52;11.85;;;;;;;7.75;75.83;99915.20;1693470;84;21535;-65
2021/11/08 02:48:04;;;;;;;25.15;12.53;;;;;;;7.71;75.80;99910.64;1693278;85;21010;-67
2021/11/08 02:50:36;;;;;;;23.22;12.90;;;;;;;7.66;75.84;99923.16;1693347;84;21065;-65
2021/11/08 02:53:05;;;;;;;23.92;12.33;;;;;;;7.64;75.92;99924.20;1693500;83;21073;-66
2021/11/08 02:55:35;;;;;;;20.75;11.85;;;;;;;7.65;75.89;99930.50;1693279;84;21493;-65
2021/11/08 02:58:04;;;;;;;19.62;12.07;;;;;;;7.66;75.80;99938.16;1693319;84;21053;-65
2021/11/08 03:00:33;;;;;;;26.82;14.23;;;;;;;7.59;75.88;99939.44;1693626;85;21080;-64
2021/11/08 03:03:02;;;;;;;33.00;16.17;;;;;;;7.54;75.92;99946.82;1693400;85;21076;-65
2021/11/08 03:05:33;;;;;;;29.05;14.35;;;;;;;7.50;76.05;99942.78;1693178;84;21053;-66
2021/11/08 03:08:09;;;;;;;27.65;13.78;;;;;;;7.47;76.13;99937.70;1693328;85;21077;-66
2021/11/08 03:10:39;;;;;;;26.80;13.88;;;;;;;7.48;76.15;99937.19;1693337;85;21015;-63
2021/11/08 03:13:14;;;;;;;28.67;13.50;;;;;;;7.46;76.14;99949.64;1693366;84;21037;-65
2021/11/08 03:15:51;;;;;;;28.52;13.60;;;;;;;7.43;76.25;99935.55;1696364;83;21097;-65
2021/11/08 03:18:25;;;;;;;27.73;13.08;;;;;;;7.42;76.30;99936.58;1696331;84;21263;-65
2021/11/08 03:20:43;;;;;;;27.85;13.78;;;;;;;7.39;76.30;99945.14;1695751;84;21517;-65
2021/11/08 03:23:12;;;;;;;28.47;14.10;;;;;;;7.37;76.29;99942.59;1697359;84;21582;-64
2021/11/08 03:25:57;;;;;;;26.30;14.68;;;;;;;7.34;76.35;99943.49;1697688;84;21623;-65
2021/11/08 03:28:19;;;;;;;31.62;15.78;;;;;;;7.31;76.42;99934.66;1697960;84;21100;-65
2021/11/08 03:30:50;;;;;;;26.87;12.88;;;;;;;7.26;76.49;99926.20;1698839;84;21519;-67
2021/11/08 03:33:19;;;;;;;24.95;13.32;;;;;;;7.21;76.58;99925.92;1698813;84;21590;-65
2021/11/08 03:35:48;;;;;;;22.52;12.75;;;;;;;7.22;76.68;99931.70;1698814;84;21175;-65
2021/11/08 03:38:16;;;;;;;30.85;15.58;;;;;;;7.26;76.63;99928.08;1698811;84;21045;-65
2021/11/08 03:40:46;;;;;;;28.50;14.33;;;;;;;7.23;76.62;99926.58;1698974;84;21068;-66
2021/11/08 03:43:18;;;;;;;32.45;15.30;;;;;;;7.24;76.65;99917.89;1698992;84;21421;-66
2021/11/08 03:45:47;;;;;;;25.12;12.25;;;;;;;7.25;76.65;99919.58;1698714;84;21059;-67
2021/11/08 03:48:16;;;;;;;25.80;14.47;;;;;;;7.28;76.56;99928.22;1698888;84;21472;-66
2021/11/08 03:50:45;;;;;;;25.30;13.00;;;;;;;7.28;76.45;99924.14;1699130;84;21553;-65
2021/11/08 03:53:15;;;;;;;24.45;14.00;;;;;;;7.23;76.42;99919.77;1698775;83;21695;-66
2021/11/08 03:55:46;;;;;;;36.23;17.40;;;;;;;7.20;76.50;99921.50;1698792;84;21546;-65
2021/11/08 03:58:15;;;;;;;35.25;15.60;;;;;;;7.21;76.59;99917.75;1698804;84;21096;-65
2021/11/08 04:00:44;;;;;;;26.33;13.72;;;;;;;7.21;76.53;99920.47;1698778;84;21641;-66
2021/11/08 04:03:13;;;;;;;28.95;14.85;;;;;;;7.21;76.53;99923.20;1698703;84;21111;-66
2021/11/08 04:05:42;;;;;;;26.42;13.55;;;;;;;7.21;76.47;99924.56;1698799;84;21595;-65
2021/11/08 04:08:15;;;;;;;30.80;14.33;;;;;;;7.21;76.53;99921.84;1698820;84;21641;-66
2021/11/08 04:10:44;;;;;;;21.57;12.63;;;;;;;7.21;76.50;99919.11;1698685;84;21075;-65
2021/11/08 04:13:13;;;;;;;22.05;12.50;;;;;;;7.19;76.51;99923.90;1698174;84;21983;-65
2021/11/08 04:15:45;;;;;;;33.60;15.85;;;;;;;7.19;76.52;99925.78;1693433;84;21464;-66
2021/11/08 04:18:19;;;;;;;29.50;16.23;;;;;;;7.17;76.47;99923.76;1692031;85;21143;-66
2021/11/08 04:20:49;;;;;;;30.88;15.95;;;;;;;7.14;76.50;99923.59;1692048;85;21077;-66
2021/11/08 04:23:19;;;;;;;31.35;15.55;;;;;;;7.12;76.49;99920.20;1697193;83;21099;-66
2021/11/08 04:25:49;;;;;;;31.27;15.45;;;;;;;7.08;76.54;99918.88;1717782;83;21485;-70
2021/11/08 04:28:18;;;;;;;26.80;13.55;;;;;;;7.01;76.67;99920.67;1717725;83;21049;-64
2021/11/08 04:30:46;;;;;;;25.10;14.33;;;;;;;6.99;76.78;99929.54;1718073;83;21037;-64
2021/11/08 04:35:58;;;;;;;25.35;14.13;;;;;;;7.03;76.84;99922.69;1717771;83;21292;-66
2021/11/08 04:43:53;;;;;;;27.52;13.28;;;;;;;6.94;76.85;99938.27;1715250;83;21093;-65
2021/11/08 04:49:18;;;;;;;;;;;;;;;6.91;76.96;99950.89;1696094;84;21493;-66
2021/11/08 04:51:51;;;;;;;23.47;12.73;;;;;;;6.89;76.96;99946.66;1692575;85;20469;-65
2021/11/08 04:54:28;;;;;;;25.25;13.40;;;;;;;6.84;77.08;99949.09;1708982;83;21482;-66
2021/11/08 04:57:19;;;;;;;23.10;11.57;;;;;;;6.83;77.15;99954.21;1716655;83;21227;-66
2021/11/08 05:22:12;;;;;;;20.00;11.10;;;;;;;6.92;77.08;99977.09;1641906;86;21025;-64
2021/11/08 05:24:40;;;;;;;22.87;11.55;;;;;;;6.95;77.07;99967.20;1662444;86;21180;-65
2021/11/08 05:32:31;;;;;;;22.98;12.95;;;;;;;6.91;76.76;99978.13;1729834;82;21116;-66
2021/11/08 05:35:01;;;;;;;28.27;12.78;;;;;;;6.90;76.93;99989.20;1701511;83;21056;-65
2021/11/08 05:37:30;;;;;;;19.12;11.18;;;;;;;6.87;76.93;99993.14;1698688;84;21065;-65
2021/11/08 05:40:07;;;;;;;29.15;12.55;;;;;;;6.86;76.91;99996.05;1701826;83;21086;-69
2021/11/08 05:42:29;;;;;;;47.27;11.93;;;;;;;6.86;76.95;99987.88;1699570;84;21461;-64
2021/11/08 05:44:59;;;;;;;22.65;11.88;;;;;;;6.85;76.93;99987.03;1700685;83;21492;-65
2021/11/08 05:47:29;;;;;;;25.08;13.22;;;;;;;6.84;76.98;99985.34;1700389;83;21578;-67
2021/11/08 05:50:01;;;;;;;26.37;13.18;;;;;;;6.83;77.04;99990.45;1700192;84;21548;-66
2021/11/08 05:52:30;;;;;;;20.55;10.95;;;;;;;6.84;77.07;100000.83;1700585;84;21653;-64
2021/11/08 05:54:59;;;;;;;21.65;12.50;;;;;;;6.86;77.10;100001.50;1700658;83;21083;-66
2021/11/08 05:57:42;;;;;;;25.62;13.78;;;;;;;6.91;77.04;99996.34;1700525;84;21049;-67
2021/11/08 06:50:28;;;;;;;;;;;;;;;7.24;75.79;100054.97;1695944;84;21078;-65
2021/11/08 06:53:02;;;;;;;20.50;10.80;;;;;;;7.26;75.65;100048.82;1693516;85;20166;-66
2021/11/08 06:55:27;;;;;;;23.27;11.95;;;;;;;7.29;75.69;100056.63;1692995;84;21181;-71
2021/11/08 06:58:11;;;;;;;22.10;10.75;;;;;;;7.33;75.45;100053.02;1711041;83;21084;-66
2021/11/08 07:00:36;;;;;;;21.37;10.60;;;;;;;7.35;75.50;100057.77;1717468;83;21060;-67
2021/11/08 07:03:05;;;;;;;23.10;11.78;;;;;;;7.41;75.59;100057.54;1717169;83;21076;-66
2021/11/08 07:05:34;;;;;;;20.85;11.05;;;;;;;7.47;75.45;100053.55;1717699;83;21033;-65
2021/11/08 07:08:04;;;;;;;20.82;10.72;;;;;;;7.53;75.31;100049.23;1717724;83;21456;-65
2021/11/08 07:10:33;;;;;;;28.10;11.97;;;;;;;7.60;75.23;100049.66;1718011;83;21469;-66
2021/11/08 07:13:04;;;;;;;22.30;13.90;;;;;;;7.65;74.99;100050.47;1717681;83;21492;-65
2021/11/08 07:15:34;;;;;;;23.07;11.53;;;;;;;7.70;74.74;100052.11;1718237;83;21076;-65
2021/11/08 07:18:03;;;;;;;19.90;10.75;;;;;;;7.73;74.42;100046.28;1729966;82;21047;-71
2021/11/08 07:20:32;;;;;;;23.85;11.60;;;;;;;7.73;74.30;100047.64;1730093;82;21164;-67
2021/11/08 07:23:02;;;;;;;21.65;10.43;;;;;;;7.74;74.29;100049.86;1643547;87;21055;-66
2021/11/08 07:25:31;;;;;;;20.55;10.18;;;;;;;7.79;74.25;100052.34;1644392;86;21039;-66
2021/11/08 07:28:04;;;;;;;20.23;10.50;;;;;;;7.81;73.97;100049.47;1644467;86;21071;-66
2021/11/08 07:30:33;;;;;;;23.15;9.93;;;;;;;7.81;74.11;100058.48;1644552;87;21022;-64
2021/11/08 07:33:04;;;;;;;20.40;10.98;;;;;;;7.85;74.09;100059.81;1642202;86;22122;-65
2021/11/08 07:35:33;;;;;;;23.32;12.47;;;;;;;7.89;74.09;100067.94;1644374;87;21070;-66
2021/11/08 07:38:02;;;;;;;22.95;12.00;;;;;;;7.97;74.11;100072.97;1644426;86;21050;-67
2021/11/08 07:40:31;;;;;;;22.70;12.20;;;;;;;8.03;73.92;100074.94;1644405;86;21581;-66
2021/11/08 07:43:00;;;;;;;22.73;13.10;;;;;;;8.05;73.67;100078.33;1644414;87;21170;-67
2021/11/08 07:45:29;;;;;;;23.07;12.90;;;;;;;8.07;73.77;100081.20;1641405;86;21078;-67
2021/11/08 07:47:58;;;;;;;20.23;10.85;;;;;;;8.13;73.76;100082.32;1699368;83;21060;-67
2021/11/08 07:50:29;;;;;;;16.70;9.68;;;;;;;8.18;73.59;100093.52;1728456;82;21048;-65
2021/11/08 07:52:58;;;;;;;22.48;12.15;;;;;;;8.24;73.14;100096.33;1729911;82;21518;-66
2021/11/08 07:55:27;;;;;;;23.77;12.07;;;;;;;8.27;73.03;100099.19;1708802;82;21285;-68
2021/11/08 07:57:57;;;;;;;22.37;11.10;;;;;;;8.33;73.05;100098.46;1700467;83;21085;-66
2021/11/08 08:00:26;;;;;;;19.12;10.65;;;;;;;8.44;73.22;100100.70;1700257;83;21115;-66
2021/11/08 08:02:55;;;;;;;19.85;10.28;;;;;;;8.66;73.32;100103.51;1700271;84;21202;-68
2021/11/08 08:05:25;;;;;;;17.25;10.48;;;;;;;8.91;72.87;100096.64;1684259;83;21496;-66
2021/11/08 08:07:56;;;;;;;16.75;9.55;;;;;;;9.15;71.74;100091.33;1730057;83;21084;-66
2021/11/08 08:10:25;;;;;;;18.32;9.48;;;;;;;9.32;70.50;100103.69;1729905;82;21118;-67
2021/11/08 08:12:55;;;;;;;19.00;9.03;;;;;;;9.41;70.04;100098.92;1730216;82;21812;-65
2021/11/08 08:15:24;;;;;;;19.67;9.40;;;;;;;9.42;69.26;100100.61;1727734;82;21530;-67
2021/11/08 08:17:56;;;;;;;19.30;10.60;;;;;;;9.42;69.15;100101.98;1729881;82;21072;-65
2021/11/08 08:20:26;;;;;;;19.62;9.73;;;;;;;9.40;69.08;100102.70;1730236;83;21107;-67
2021/11/08 08:22:55;;;;;;;17.27;8.80;;;;;;;9.38;69.06;100111.63;1721257;83;21569;-66
2021/11/08 08:25:24;;;;;;;17.05;8.90;;;;;;;9.35;68.98;100117.48;1700335;83;21543;-67
2021/11/08 08:27:54;;;;;;;16.48;8.50;;;;;;;9.24;68.61;100112.02;1700315;83;21030;-66
2021/11/08 08:30:23;;;;;;;20.17;8.88;;;;;;;9.12;68.96;100110.34;1700221;83;21402;-66
2021/11/08 08:32:54;;;;;;;17.48;8.53;;;;;;;9.05;69.29;100101.72;1702907;83;21064;-66
2021/11/08 08:35:23;;;;;;;15.70;8.58;;;;;;;9.03;69.46;100106.01;1729821;82;21193;-64
2021/11/08 08:37:52;;;;;;;14.60;7.62;;;;;;;8.99;69.21;100099.24;1729806;82;21028;-66
2021/11/08 08:40:22;;;;;;;18.37;8.20;;;;;;;8.99;69.86;100099.24;1729990;83;21064;-66
2021/11/08 08:42:51;;;;;;;21.73;9.30;;;;;;;9.04;70.00;100100.87;1730023;82;21436;-67
2021/11/08 08:45:20;;;;;;;17.12;7.60;;;;;;;9.11;69.86;100101.81;1703602;83;21482;-66
2021/11/08 08:47:49;;;;;;;17.25;8.35;;;;;;;9.19;69.67;100111.25;1708978;83;21036;-65
2021/11/08 08:50:18;;;;;;;13.95;7.22;;;;;;;9.28;69.60;100109.22;1729859;82;21514;-66
2021/11/08 08:52:48;;;;;;;16.02;7.55;;;;;;;9.36;69.31;100108.23;1729855;82;21160;-65
2021/11/08 08:55:16;;;;;;;13.10;7.53;;;;;;;9.38;68.44;100115.72;1714720;82;21041;-65
2021/11/08 08:57:46;;;;;;;13.55;7.12;;;;;;;9.36;68.59;100117.28;1700258;83;21203;-64
2021/11/08 09:00:17;;;;;;;14.38;7.78;;;;;;;9.38;68.41;100122.56;1700210;84;21050;-65
2021/11/08 09:02:49;;;;;;;13.48;7.55;;;;;;;9.41;67.73;100127.11;1722016;82;21077;-65
2021/11/08 09:05:18;;;;;;;12.25;6.97;;;;;;;9.39;67.66;100110.58;1729873;82;21017;-66
2021/11/08 09:07:57;;;;;;;11.78;6.67;;;;;;;9.40;67.53;100112.27;1730141;82;21534;-64
2021/11/08 09:10:28;;;;;;;13.95;7.85;;;;;;;9.39;67.86;100105.95;1730044;83;21785;-66
2021/11/08 09:12:57;;;;;;;12.82;7.45;;;;;;;9.45;67.60;100116.62;1708174;83;21080;-67
2021/11/08 09:15:27;;;;;;;17.35;8.13;;;;;;;9.45;67.40;100127.56;1698884;84;21473;-64
2021/11/08 09:17:57;;;;;;;18.73;8.48;;;;;;;9.45;67.52;100131.66;1699228;83;21101;-64
2021/11/08 09:20:27;;;;;;;15.53;7.65;;;;;;;9.43;67.67;100129.65;1690200;83;21183;-65
2021/11/08 09:22:59;;;;;;;14.40;7.65;;;;;;;9.46;67.69;100125.16;1697331;84;21011;-66
2021/11/08 09:25:29;;;;;;;13.18;7.60;;;;;;;9.51;67.45;100124.88;1691307;84;21612;-68
2021/11/08 09:28:03;;;;;;;15.98;7.87;;;;;;;9.57;66.48;100119.67;1698844;84;21507;-65
2021/11/08 09:30:36;;;;;;;14.70;7.42;;;;;;;9.59;66.78;100118.42;1674614;83;21061;-66
2021/11/08 09:33:06;;;;;;;15.25;7.80;;;;;;;9.65;65.90;100115.42;1700114;83;21061;-64
2021/11/08 09:35:43;;;;;;;11.75;6.78;;;;;;;9.69;65.78;100122.18;1686715;84;21559;-66
2021/11/08 09:38:09;;;;;;;12.90;7.45;;;;;;;9.68;66.09;100117.23;1671610;85;21113;-66
2021/11/08 09:40:39;;;;;;;13.90;6.83;;;;;;;9.68;66.13;100106.29;1671159;86;21077;-67
2021/11/08 09:43:11;;;;;;;10.63;6.10;;;;;;;9.69;66.25;100098.41;1720457;83;21064;-63
2021/11/08 09:45:40;;;;;;;12.78;5.75;;;;;;;9.73;65.40;100109.27;1729471;82;21088;-64
2021/11/08 09:48:12;;;;;;;13.72;6.10;;;;;;;9.76;64.94;100103.44;1703710;83;21113;-64
2021/11/08 09:50:44;;;;;;;10.32;5.83;;;;;;;9.75;64.38;100101.74;1699654;83;21069;-65
2021/11/08 09:53:13;;;;;;;9.05;5.12;;;;;;;9.72;63.65;100111.69;1701638;83;21092;-65
2021/11/08 09:55:44;;;;;;;18.75;8.43;;;;;;;9.69;63.56;100114.81;1700141;84;21033;-68
2021/11/08 09:58:14;;;;;;;11.28;5.60;;;;;;;9.68;63.80;100118.59;1700078;84;21041;-67
2021/11/08 10:00:48;;;;;;;10.28;5.58;;;;;;;9.69;63.38;100113.97;1700019;83;21171;-65
2021/11/08 10:03:22;;;;;;;18.62;7.95;;;;;;;9.70;63.67;100131.55;1701915;83;21211;-65
2021/11/08 10:05:56;;;;;;;10.95;6.17;;;;;;;9.71;63.81;100129.66;1700284;84;21529;-64
2021/11/08 10:08:28;;;;;;;10.28;5.78;;;;;;;9.74;63.76;100134.74;1700311;83;21108;-63
2021/11/08 10:11:01;;;;;;;9.53;4.80;;;;;;;9.76;62.97;100140.37;1700648;83;21021;-64
2021/11/08 10:13:32;;;;;;;11.20;5.00;;;;;;;9.76;62.71;100139.00;1700623;83;21075;-66
2021/11/08 10:16:12;;;;;;;9.73;5.20;;;;;;;9.75;62.30;100142.78;1700260;84;21035;-64
2021/11/08 10:18:45;;;;;;;8.83;4.62;;;;;;;9.76;62.46;100148.58;1704278;83;21149;-67
2021/11/08 10:21:17;;;;;;;7.72;4.33;;;;;;;9.76;61.90;100140.37;1681018;84;21150;-66
2021/11/08 10:23:50;;;;;;;8.60;3.92;;;;;;;9.76;61.05;100143.11;1643552;85;21125;-67
2021/11/08 10:26:25;;;;;;;10.10;4.08;;;;;;;9.73;60.13;100142.10;1665459;85;21041;-65
2021/11/08 10:29:10;;;;;;;7.70;3.77;;;;;;;9.71;59.79;100138.72;1606287;88;21102;-64
2021/11/08 10:31:45;;;;;;;8.83;4.20;;;;;;;9.73;60.01;100142.10;1633815;88;21513;-66
2021/11/08 10:34:14;;;;;;;6.72;3.30;;;;;;;9.78;59.46;100136.91;1633911;88;21082;-68
2021/11/08 10:36:46;;;;;;;9.13;3.72;;;;;;;9.87;59.43;100142.23;1633840;87;21656;-67
2021/11/08 10:39:19;;;;;;;8.90;3.90;;;;;;;9.92;59.44;100141.95;1632055;88;21023;-65
2021/11/08 10:41:48;;;;;;;5.47;3.27;;;;;;;10.00;59.31;100142.33;1559993;91;21094;-64
2021/11/08 10:44:23;;;;;;;6.70;3.40;;;;;;;10.04;58.44;100144.46;1580369;91;21082;-66
2021/11/08 10:47:05;;;;;;;6.85;3.62;;;;;;;10.02;58.26;100136.97;1602108;88;21173;-65
2021/11/08 10:49:38;;;;;;;5.65;2.92;;;;;;;10.04;58.32;100148.56;1653378;86;21082;-66
2021/11/08 10:52:07;;;;;;;10.23;3.08;;;;;;;10.02;57.64;100151.18;1690664;85;21071;-66
2021/11/08 10:54:38;;;;;;;7.25;3.15;;;;;;;10.03;57.16;100132.34;1665959;85;21485;-66
2021/11/08 10:57:21;;;;;;;6.50;3.10;;;;;;;10.03;57.22;100120.88;1680990;84;21496;-65
2021/11/08 10:59:52;;;;;;;8.73;2.98;;;;;;;10.04;56.93;100125.30;1666584;85;21072;-65
2021/11/08 11:02:26;;;;;;;11.50;3.55;;;;;;;10.08;56.80;100124.38;1686347;84;21498;-63
2021/11/08 11:05:03;;;;;;;6.75;3.17;;;;;;;10.09;56.41;100124.17;1695235;84;21043;-63
2021/11/08 11:07:37;;;;;;;9.15;3.80;;;;;;;10.11;57.52;100118.49;1695471;85;21090;-64
2021/11/08 11:10:21;;;;;;;5.75;3.20;;;;;;;10.16;57.47;100121.47;1685283;85;21112;-65
2021/11/08 11:12:51;;;;;;;9.13;3.00;;;;;;;10.19;56.69;100114.22;1666618;85;21531;-65
2021/11/08 11:15:31;;;;;;;8.55;3.52;;;;;;;10.19;56.20;100114.22;1657491;85;21607;-65
2021/11/08 11:18:01;;;;;;;7.00;2.97;;;;;;;10.15;56.01;100122.00;1644534;84;21571;-64
2021/11/08 11:20:34;;;;;;;7.92;3.08;;;;;;;10.13;55.79;100134.20;1683889;83;21084;-67
2021/11/08 11:23:15;;;;;;;5.65;3.17;;;;;;;10.11;56.79;100130.29;1700572;84;21070;-65
2021/11/08 11:25:53;;;;;;;4.90;2.70;;;;;;;10.10;55.89;100131.86;1700547;84;21548;-64
2021/11/08 11:28:31;;;;;;;7.15;3.60;;;;;;;10.07;55.95;100129.53;1700639;84;21063;-65
2021/11/08 11:30:58;;;;;;;6.97;3.17;;;;;;;10.07;56.10;100137.73;1701095;84;21076;-64
2021/11/08 11:33:29;;;;;;;8.68;2.85;;;;;;;10.08;55.46;100135.33;1700715;84;21064;-65
2021/11/08 11:36:11;;;;;;;9.85;3.20;;;;;;;10.07;55.66;100143.22;1700725;84;21143;-65
2021/11/08 11:38:48;;;;;;;5.85;2.60;;;;;;;10.07;55.64;100148.69;1700699;84;21077;-65
2021/11/08 11:41:20;;;;;;;7.53;3.47;;;;;;;10.07;55.98;100140.48;1699221;84;21143;-66
2021/11/08 11:43:59;;;;;;;9.43;5.03;;;;;;;10.08;56.09;100143.02;1699367;84;21546;-66
2021/11/08 11:46:34;;;;;;;7.65;3.08;;;;;;;10.09;56.02;100141.97;1699436;84;21483;-66
2021/11/08 11:49:03;;;;;;;10.43;3.00;;;;;;;10.11;55.88;100129.45;1700755;84;21537;-65
2021/11/08 11:51:40;;;;;;;7.95;2.87;;;;;;;10.10;55.97;100128.60;1700861;84;21100;-66
2021/11/08 11:54:10;;;;;;;;;;;;;;;10.11;55.33;100125.34;1703516;84;21060;-66
2021/11/08 11:56:41;;;;;;;9.55;2.92;;;;;;;10.07;55.12;100134.48;1678872;83;20576;-66
2021/11/08 11:59:11;;;;;;;5.45;2.75;;;;;;;10.04;55.27;100130.77;1699263;84;21480;-65
2021/11/08 12:01:41;;;;;;;6.12;3.00;;;;;;;10.05;55.19;100139.83;1699186;84;21112;-67
2021/11/08 12:04:12;;;;;;;8.08;3.02;;;;;;;10.07;54.49;100134.48;1696903;84;21102;-67
2021/11/08 12:06:47;;;;;;;4.33;2.30;;;;;;;10.07;54.48;100133.11;1719688;83;21056;-65
2021/11/08 12:09:20;;;;;;;8.33;2.83;;;;;;;10.06;53.86;100125.95;1729955;83;21465;-66
2021/11/08 12:11:52;;;;;;;4.55;2.15;;;;;;;10.05;53.79;100145.31;1729869;83;21119;-65
2021/11/08 12:14:34;;;;;;;5.85;2.30;;;;;;;10.06;54.42;100161.53;1729955;83;21604;-65
2021/11/08 12:17:16;;;;;;;8.20;2.50;;;;;;;10.05;53.40;100149.41;1707069;83;21073;-66
2021/11/08 12:19:46;;;;;;;9.63;4.33;;;;;;;10.03;53.74;100151.50;1688041;85;21010;-65
2021/11/08 12:22:24;;;;;;;5.55;2.62;;;;;;;10.06;54.13;100159.31;1687865;85;21161;-67
2021/11/08 12:25:07;;;;;;;6.80;2.52;;;;;;;10.07;53.70;100164.59;1666581;84;21673;-69
2021/11/08 12:27:51;;;;;;;6.20;3.12;;;;;;;10.07;54.14;100161.00;1684591;84;21041;-63
2021/11/08 12:30:28;;;;;;;7.67;3.27;;;;;;;10.09;54.31;100161.12;1682026;85;21098;-65
2021/11/08 12:33:04;;;;;;;3.95;1.92;;;;;;;10.12;54.27;100162.62;1681906;85;21092;-66
2021/11/08 12:35:47;;;;;;;5.28;2.37;;;;;;;10.14;53.64;100167.38;1715790;83;21600;-65
2021/11/08 12:38:25;;;;;;;3.65;1.90;;;;;;;10.15;53.46;100167.70;1718135;83;21581;-67
2021/11/08 12:41:25;;;;;;;5.83;2.52;;;;;;;10.13;53.63;100169.78;1654517;85;21019;-67
2021/11/08 12:43:59;;;;;;;6.67;2.30;;;;;;;10.14;53.94;100176.43;1638997;87;21073;-66
2021/11/08 12:46:45;;;;;;;6.30;2.33;;;;;;;10.14;53.31;100180.53;1661339;86;21548;-65
2021/11/08 12:49:25;;;;;;;5.47;2.10;;;;;;;10.14;52.94;100182.43;1661176;85;21079;-66
2021/11/08 12:52:02;;;;;;;6.42;2.27;;;;;;;10.11;52.21;100181.46;1661901;85;21043;-65
2021/11/08 12:54:31;;;;;;;4.40;1.80;;;;;;;10.09;52.31;100172.60;1686864;85;21044;-65
2021/11/08 12:57:11;;;;;;;4.85;2.05;;;;;;;10.07;52.66;100180.17;1663682;85;21051;-64
2021/11/08 12:59:45;;;;;;;7.00;2.10;;;;;;;10.08;52.45;100184.08;1688957;83;21529;-64
2021/11/08 13:02:23;;;;;;;5.10;1.87;;;;;;;10.10;51.96;100182.50;1689093;84;21547;-65
2021/11/08 13:04:55;;;;;;;7.45;2.62;;;;;;;10.08;52.04;100175.02;1688155;85;21343;-67
2021/11/08 13:07:31;;;;;;;5.90;2.08;;;;;;;10.07;52.46;100181.54;1689351;84;21083;-67
2021/11/08 13:10:00;;;;;;;10.32;3.90;;;;;;;10.08;52.54;100179.97;1689024;83;21102;-65
2021/11/08 13:12:42;;;;;;;4.70;2.10;;;;;;;10.10;52.49;100181.98;1689068;83;21094;-66
2021/11/08 13:15:22;;;;;;;5.40;2.17;;;;;;;10.11;52.35;100188.30;1686993;85;21498;-67